Terminal Aerodrome Forecast
Issued by NWS Melbourne, FL

Home | Current Version | Previous Version | Text Only | Print | Product List | Glossary On
Versions: 1 2 3 4 5 6 7 8 9 10 11 12 13 14 15 16 17 18 19 20 21
000
FTUS42 KMLB 191505 AAE
TAFDAB
TAF AMD
KDAB 191505Z 1915/2012 32007KT P6SM FEW007 BKN011 BKN070
     FM191800 32008KT P6SM SCT030
     FM192100 04010KT P6SM SCT030
     FM200200 03003KT P6SM SKC=

USA.gov is the U.S. government's official web portal to all federal, state and local government web resources and services.